Time;durP1;ratioP1;P1;durP2;ratioP2;P2;SDS_P1;SDS_P2;PMS_P1;PMS_P2;Temp;Humidity;BMP_temperature;BMP_pressure;BME280_temperature;BME280_humidity;BME280_pressure;Samples;Min_cycle;Max_cycle;Signal;HPM_P1;HPM_P2
2021/04/03 00:03:30;;;;;;;15.27;4.32;;;4.10;88.40;;;;;;5861116;32;20082;-70
2021/04/03 00:07:38;;;;;;;12.27;3.38;;;4.10;88.20;;;;;;5861335;32;20106;-70
2021/04/03 00:11:42;;;;;;;22.67;3.63;;;4.10;89.20;;;;;;5866927;32;20110;-70
2021/04/03 00:15:47;;;;;;;14.52;4.18;;;4.00;90.00;;;;;;5859845;32;20082;-70
2021/04/03 00:19:54;;;;;;;13.07;3.15;;;4.00;89.20;;;;;;5859570;32;20085;-70
2021/04/03 00:24:01;;;;;;;21.48;4.28;;;3.90;89.10;;;;;;5862129;32;20073;-70
2021/04/03 00:28:06;;;;;;;15.35;3.38;;;3.90;89.70;;;;;;5851552;32;20184;-69
2021/04/03 00:32:10;;;;;;;11.93;3.05;;;3.90;90.30;;;;;;5857719;32;20181;-70
2021/04/03 00:36:14;;;;;;;9.57;2.65;;;3.80;90.10;;;;;;5859344;40;20460;-69
2021/04/03 00:40:25;;;;;;;15.63;2.95;;;3.80;89.10;;;;;;5861941;32;20100;-69
2021/04/03 00:44:29;;;;;;;16.67;3.63;;;3.80;88.80;;;;;;5860328;32;20177;-69
2021/04/03 00:48:34;;;;;;;11.80;3.22;;;3.80;88.40;;;;;;5862309;32;20188;-69
2021/04/03 00:52:41;;;;;;;11.23;2.80;;;3.70;88.40;;;;;;5847005;32;20074;-69
2021/04/03 00:56:49;;;;;;;11.98;2.78;;;3.80;88.30;;;;;;5864963;32;20075;-70
2021/04/03 01:00:53;;;;;;;13.95;3.03;;;3.70;87.90;;;;;;5862187;32;20425;-70
2021/04/03 01:05:07;;;;;;;14.88;3.67;;;3.70;88.10;;;;;;5859030;32;20086;-69
2021/04/03 01:09:11;;;;;;;13.18;3.17;;;3.70;88.40;;;;;;5864963;32;20425;-69
2021/04/03 01:13:29;;;;;;;10.32;3.15;;;3.70;88.00;;;;;;5860268;32;20062;-70
2021/04/03 01:17:55;;;;;;;11.10;3.45;;;3.60;87.80;;;;;;5859427;32;20109;-70
2021/04/03 01:22:35;;;;;;;11.75;3.10;;;3.50;87.80;;;;;;5865882;40;20083;-69
2021/04/03 01:27:03;;;;;;;12.20;3.05;;;3.50;88.10;;;;;;5857233;32;20074;-70
2021/04/03 01:31:10;;;;;;;10.20;3.00;;;3.40;88.00;;;;;;5860653;32;20101;-69
2021/04/03 01:35:21;;;;;;;9.32;3.10;;;3.40;88.10;;;;;;5854810;32;20145;-70
2021/04/03 01:39:28;;;;;;;12.60;2.75;;;3.30;88.20;;;;;;5857959;32;20066;-70
2021/04/03 01:43:40;;;;;;;11.43;3.33;;;3.30;88.10;;;;;;5864571;32;20073;-69
2021/04/03 01:47:47;;;;;;;13.10;3.05;;;3.30;88.10;;;;;;5850622;32;20070;-69
2021/04/03 01:51:53;;;;;;;11.27;2.85;;;3.30;88.10;;;;;;5858549;32;20093;-70
2021/04/03 01:56:02;;;;;;;8.98;2.20;;;3.30;88.40;;;;;;5844329;32;20067;-70
2021/04/03 02:00:18;;;;;;;8.43;2.35;;;3.30;88.00;;;;;;5859545;32;20188;-70
2021/04/03 02:04:32;;;;;;;9.95;3.28;;;3.20;88.20;;;;;;5859989;32;20081;-70
2021/04/03 02:08:39;;;;;;;9.00;2.78;;;3.20;87.70;;;;;;5857421;32;20074;-69
2021/04/03 02:12:53;;;;;;;8.05;2.53;;;3.20;87.70;;;;;;5853502;32;20090;-70
2021/04/03 02:17:11;;;;;;;12.60;3.15;;;3.20;87.50;;;;;;5855781;32;20071;-70
2021/04/03 02:21:17;;;;;;;6.93;2.45;;;3.10;87.50;;;;;;5858383;32;20093;-70
2021/04/03 02:25:23;;;;;;;12.48;3.05;;;3.10;87.60;;;;;;5856145;32;20073;-69
2021/04/03 02:29:27;;;;;;;9.77;2.60;;;3.10;87.60;;;;;;5868124;40;20071;-68
2021/04/03 02:33:35;;;;;;;8.02;3.05;;;3.10;87.60;;;;;;5858829;32;20189;-69
2021/04/03 02:37:42;;;;;;;8.25;2.63;;;3.00;87.50;;;;;;5860002;32;20093;-70
2021/04/03 02:41:59;;;;;;;8.52;2.90;;;3.00;87.40;;;;;;5855578;32;20082;-70
2021/04/03 02:46:17;;;;;;;13.53;3.03;;;2.90;87.60;;;;;;5862015;32;20395;-68
2021/04/03 02:50:31;;;;;;;6.55;2.30;;;2.90;87.40;;;;;;5858536;32;20184;-69
2021/04/03 02:54:36;;;;;;;15.27;3.30;;;2.80;87.60;;;;;;5859479;32;20087;-69
2021/04/03 02:58:46;;;;;;;9.05;2.58;;;2.70;87.40;;;;;;5857418;32;20086;-68
2021/04/03 03:02:54;;;;;;;8.10;2.90;;;2.70;87.60;;;;;;5856817;32;20066;-69
2021/04/03 03:06:58;;;;;;;7.50;2.50;;;2.60;87.50;;;;;;5859154;32;20113;-69
2021/04/03 03:11:03;;;;;;;5.90;2.13;;;2.50;87.60;;;;;;5858874;32;20175;-69
2021/04/03 03:15:12;;;;;;;6.72;2.60;;;2.50;87.50;;;;;;5861269;32;20062;-69
2021/04/03 03:19:21;;;;;;;6.75;2.90;;;2.40;87.50;;;;;;5857725;32;20204;-69
2021/04/03 03:23:27;;;;;;;11.93;3.30;;;2.30;87.60;;;;;;5855683;32;20419;-67
2021/04/03 03:27:34;;;;;;;5.93;2.90;;;2.30;87.70;;;;;;5859537;32;20082;-68
2021/04/03 03:31:39;;;;;;;10.02;2.50;;;2.30;87.80;;;;;;5851847;32;20074;-68
2021/04/03 03:35:48;;;;;;;7.43;2.65;;;2.20;87.90;;;;;;5858231;40;20472;-68
2021/04/03 03:39:55;;;;;;;6.60;2.53;;;2.20;87.60;;;;;;5851371;32;20090;-67
2021/04/03 03:44:09;;;;;;;7.00;2.30;;;2.20;87.60;;;;;;5858127;32;20080;-67
2021/04/03 03:48:13;;;;;;;9.15;2.72;;;2.10;87.60;;;;;;5860906;32;20295;-68
2021/04/03 03:52:17;;;;;;;7.97;2.50;;;2.10;87.50;;;;;;5849368;32;20090;-68
2021/04/03 03:56:23;;;;;;;6.18;2.78;;;2.00;87.50;;;;;;5858930;32;21525;-68
2021/04/03 04:00:27;;;;;;;5.50;2.17;;;1.90;87.60;;;;;;5859273;32;20094;-68
2021/04/03 04:04:40;;;;;;;6.40;2.30;;;1.90;87.70;;;;;;5858729;40;20450;-68
2021/04/03 04:08:47;;;;;;;5.70;2.15;;;1.90;87.70;;;;;;5858088;40;20082;-67
2021/04/03 04:12:54;;;;;;;9.93;2.45;;;1.90;87.60;;;;;;5858602;32;20067;-68
2021/04/03 04:16:59;;;;;;;7.93;2.33;;;1.90;87.50;;;;;;5856269;32;20094;-68
2021/04/03 04:21:10;;;;;;;6.88;2.30;;;1.80;87.60;;;;;;5857965;32;20232;-67
2021/04/03 04:25:16;;;;;;;8.10;2.40;;;1.80;87.70;;;;;;5865147;32;20426;-68
2021/04/03 04:29:20;;;;;;;6.15;2.40;;;1.80;87.40;;;;;;5862540;32;20074;-68
2021/04/03 04:33:28;;;;;;;11.13;2.92;;;2.00;87.50;;;;;;5856453;32;20126;-69
2021/04/03 04:37:33;;;;;;;7.65;2.55;;;1.80;87.40;;;;;;5855113;32;20142;-68
2021/04/03 04:41:38;;;;;;;6.38;2.58;;;1.80;87.40;;;;;;5858295;32;20499;-69
2021/04/03 04:45:42;;;;;;;10.02;2.92;;;2.30;87.50;;;;;;5862132;32;20177;-69
2021/04/03 04:49:46;;;;;;;6.43;2.80;;;1.70;87.10;;;;;;5848134;32;20176;-69
2021/04/03 04:53:57;;;;;;;7.70;2.70;;;1.70;87.10;;;;;;5857349;32;20072;-69
2021/04/03 04:58:11;;;;;;;6.70;2.40;;;1.70;87.10;;;;;;5852020;32;20093;-69
2021/04/03 05:02:18;;;;;;;8.95;3.13;;;1.60;87.10;;;;;;5860336;32;20062;-68
2021/04/03 05:06:22;;;;;;;8.50;3.08;;;1.70;87.20;;;;;;5856862;40;20469;-69
2021/04/03 05:10:29;;;;;;;8.38;2.97;;;1.60;87.30;;;;;;5856463;32;20090;-68
2021/04/03 05:14:35;;;;;;;9.43;2.72;;;1.50;87.20;;;;;;5856723;40;20082;-68
2021/04/03 05:18:39;;;;;;;5.05;2.50;;;1.50;87.40;;;;;;5857181;32;20125;-68
2021/04/03 05:22:43;;;;;;;6.70;2.58;;;1.50;87.30;;;;;;5854405;32;20153;-68
2021/04/03 05:26:47;;;;;;;6.03;2.60;;;1.40;87.40;;;;;;5853816;32;20610;-69
2021/04/03 05:30:51;;;;;;;8.82;3.03;;;1.40;87.50;;;;;;5860331;32;20069;-69
2021/04/03 05:34:55;;;;;;;9.82;2.95;;;1.30;87.50;;;;;;5855255;32;20165;-65
2021/04/03 05:39:00;;;;;;;8.45;3.13;;;1.40;87.60;;;;;;5855552;32;20141;-67
2021/04/03 05:43:06;;;;;;;21.25;3.45;;;1.40;87.70;;;;;;5856727;40;20071;-70
2021/04/03 05:47:12;;;;;;;8.93;3.88;;;1.40;88.10;;;;;;5860173;32;20100;-70
2021/04/03 05:51:18;;;;;;;11.02;3.60;;;1.60;88.00;;;;;;5858910;32;20083;-71
2021/04/03 05:55:22;;;;;;;10.00;3.30;;;1.80;87.90;;;;;;5855993;40;20070;-66
2021/04/03 05:59:29;;;;;;;9.05;3.15;;;1.90;87.60;;;;;;5856662;32;20153;-66
2021/04/03 06:03:35;;;;;;;8.75;3.20;;;1.90;87.40;;;;;;5858578;32;20109;-66
2021/04/03 06:07:42;;;;;;;7.53;3.70;;;2.50;87.90;;;;;;5857617;32;20077;-65
2021/04/03 06:11:48;;;;;;;9.68;3.95;;;2.00;87.80;;;;;;5850253;40;20062;-65
2021/04/03 06:15:55;;;;;;;9.43;3.40;;;2.20;87.90;;;;;;5855196;32;20066;-65
2021/04/03 06:19:59;;;;;;;12.40;3.60;;;2.30;87.70;;;;;;5855833;32;20062;-66
2021/04/03 06:24:32;;;;;;;7.07;3.53;;;2.50;87.80;;;;;;5857393;32;20091;-65
2021/04/03 06:28:36;;;;;;;8.82;2.78;;;2.80;88.10;;;;;;5855074;32;20224;-66
2021/04/03 06:32:45;;;;;;;7.47;3.78;;;3.20;89.10;;;;;;5855945;32;20105;-64
2021/04/03 06:36:51;;;;;;;7.38;3.53;;;3.50;87.70;;;;;;5855948;32;20153;-66
2021/04/03 06:41:25;;;;;;;5.88;2.58;;;3.80;87.10;;;;;;5855035;32;20126;-65
2021/04/03 06:45:33;;;;;;;7.93;2.90;;;4.20;87.20;;;;;;5856825;32;20086;-67
2021/04/03 06:49:37;;;;;;;10.43;3.50;;;4.50;86.40;;;;;;5854676;32;20084;-66
2021/04/03 06:53:42;;;;;;;8.52;2.92;;;4.90;86.00;;;;;;5855051;32;20073;-65
2021/04/03 06:57:50;;;;;;;8.45;2.50;;;5.20;85.60;;;;;;5856694;32;20473;-65
2021/04/03 07:01:58;;;;;;;5.80;1.92;;;5.60;85.60;;;;;;5852045;32;20246;-66
2021/04/03 07:06:08;;;;;;;4.55;2.33;;;5.90;85.10;;;;;;5850577;40;20212;-67
2021/04/03 07:10:17;;;;;;;5.47;1.95;;;6.10;84.80;;;;;;5851977;32;20394;-66
2021/04/03 07:14:24;;;;;;;4.63;2.22;;;6.40;84.20;;;;;;5850890;32;20523;-66
2021/04/03 07:18:29;;;;;;;7.47;1.95;;;6.60;84.30;;;;;;5853089;32;20097;-66
2021/04/03 07:22:34;;;;;;;4.13;2.03;;;6.90;84.50;;;;;;5859142;32;20082;-67
2021/04/03 07:26:51;;;;;;;7.38;2.03;;;7.10;84.00;;;;;;5847741;40;20103;-67
2021/04/03 07:30:55;;;;;;;3.97;1.63;;;7.30;83.60;;;;;;5857926;32;20153;-66
2021/04/03 07:35:24;;;;;;;5.90;1.60;;;7.50;83.00;;;;;;5854153;32;20062;-67
2021/04/03 07:39:37;;;;;;;4.35;1.70;;;7.70;82.60;;;;;;5857921;32;20081;-66
2021/04/03 07:43:47;;;;;;;4.35;1.60;;;7.80;82.90;;;;;;5845706;32;20336;-66
2021/04/03 07:47:54;;;;;;;3.67;1.38;;;7.90;81.90;;;;;;5862936;32;20075;-67
2021/04/03 07:51:58;;;;;;;5.95;1.90;;;8.20;81.40;;;;;;5856685;32;20435;-67
2021/04/03 07:56:06;;;;;;;6.90;2.30;;;8.30;82.60;;;;;;5855778;32;20108;-67
2021/04/03 08:00:22;;;;;;;10.10;1.88;;;8.50;81.50;;;;;;5859405;32;20113;-67
2021/04/03 08:04:26;;;;;;;3.85;1.35;;;8.70;82.50;;;;;;5860226;32;20098;-68
2021/04/03 08:08:32;;;;;;;3.63;1.20;;;8.90;82.10;;;;;;5862995;32;20141;-66
2021/04/03 08:12:36;;;;;;;3.80;1.20;;;9.00;79.10;;;;;;5854512;32;20101;-67
2021/04/03 08:16:42;;;;;;;3.20;1.25;;;9.20;81.20;;;;;;5865332;32;20117;-71
2021/04/03 08:20:52;;;;;;;3.90;1.42;;;9.40;79.80;;;;;;5859283;32;20664;-71
2021/04/03 08:25:00;;;;;;;2.80;1.27;;;9.50;79.20;;;;;;5852116;32;20101;-71
2021/04/03 08:29:05;;;;;;;4.00;0.98;;;9.40;79.50;;;;;;5862580;32;20175;-71
2021/04/03 08:33:12;;;;;;;4.90;1.00;;;8.90;77.30;;;;;;5858872;32;20118;-71
2021/04/03 08:37:16;;;;;;;4.00;1.25;;;9.60;79.10;;;;;;5857196;32;20416;-71
2021/04/03 08:41:24;;;;;;;2.10;0.80;;;9.70;79.50;;;;;;5856177;32;20063;-71
2021/04/03 08:45:40;;;;;;;4.60;0.70;;;9.80;78.70;;;;;;5858881;32;20141;-71
2021/04/03 08:49:44;;;;;;;3.55;0.82;;;10.10;78.30;;;;;;5860059;32;20081;-71
2021/04/03 08:53:54;;;;;;;3.55;1.02;;;10.10;72.50;;;;;;5855533;32;20082;-67
2021/04/03 08:58:00;;;;;;;3.35;1.00;;;10.10;72.80;;;;;;5854637;32;20392;-67
2021/04/03 09:02:07;;;;;;;5.13;1.00;;;10.00;74.80;;;;;;5855261;32;20063;-66
2021/04/03 09:06:13;;;;;;;1.83;0.60;;;10.20;76.30;;;;;;5858685;32;20070;-66
2021/04/03 09:10:23;;;;;;;2.22;0.77;;;10.40;76.00;;;;;;5857660;32;20173;-67
2021/04/03 09:14:36;;;;;;;1.45;0.60;;;10.60;76.20;;;;;;5856620;32;20069;-66
2021/04/03 09:18:46;;;;;;;3.55;0.80;;;10.80;75.90;;;;;;5859230;32;20164;-67
2021/04/03 09:22:55;;;;;;;1.92;0.80;;;11.00;75.30;;;;;;5852180;32;20607;-67
2021/04/03 09:27:14;;;;;;;1.98;0.50;;;10.90;69.10;;;;;;5846526;32;20132;-66
2021/04/03 09:31:18;;;;;;;2.65;0.63;;;10.80;70.40;;;;;;5856817;33;20066;-66
2021/04/03 09:35:27;;;;;;;3.25;1.50;;;10.70;67.20;;;;;;5854096;32;20086;-67
2021/04/03 09:39:48;;;;;;;2.72;0.70;;;10.70;66.20;;;;;;5858846;32;20062;-67
2021/04/03 09:43:53;;;;;;;2.30;0.73;;;10.60;71.40;;;;;;5848345;32;20082;-68
2021/04/03 09:47:58;;;;;;;4.55;0.82;;;10.70;70.10;;;;;;5858456;32;20515;-67
2021/04/03 09:52:03;;;;;;;1.95;0.63;;;10.70;67.80;;;;;;5861275;40;20081;-66
2021/04/03 09:56:08;;;;;;;1.42;0.50;;;10.80;69.40;;;;;;5855285;32;20082;-66
2021/04/03 10:00:12;;;;;;;3.97;0.90;;;10.90;63.90;;;;;;5859105;32;20593;-66
2021/04/03 10:04:19;;;;;;;2.60;0.45;;;10.90;62.40;;;;;;5857343;32;20316;-66
2021/04/03 10:08:27;;;;;;;3.22;1.27;;;10.80;65.40;;;;;;5857900;32;20063;-67
2021/04/03 10:12:33;;;;;;;2.63;0.95;;;10.70;61.80;;;;;;5851448;32;20082;-67
2021/04/03 10:16:38;;;;;;;2.97;1.38;;;10.60;61.40;;;;;;5848660;32;20071;-67
2021/04/03 10:20:43;;;;;;;2.83;0.80;;;10.60;62.70;;;;;;5859089;32;20066;-67
2021/04/03 10:24:50;;;;;;;1.90;0.55;;;10.50;62.00;;;;;;5865550;32;20479;-67
2021/04/03 10:28:55;;;;;;;1.15;0.50;;;10.50;63.60;;;;;;5857618;32;20105;-68
2021/04/03 10:33:01;;;;;;;2.05;0.70;;;10.50;65.30;;;;;;5853381;40;20184;-67
2021/04/03 10:37:06;;;;;;;3.45;0.70;;;10.50;63.20;;;;;;5845262;32;20557;-67
2021/04/03 10:41:11;;;;;;;1.35;0.40;;;10.50;63.30;;;;;;5851338;32;20109;-68
2021/04/03 10:45:15;;;;;;;1.80;0.50;;;10.60;62.10;;;;;;5857333;32;20117;-66
2021/04/03 10:49:21;;;;;;;1.73;0.40;;;10.70;62.30;;;;;;5849722;32;20192;-66
2021/04/03 10:53:25;;;;;;;1.65;0.50;;;10.90;61.50;;;;;;5858098;32;20066;-67
2021/04/03 10:57:29;;;;;;;2.80;0.40;;;11.60;59.20;;;;;;5844963;32;20173;-67
2021/04/03 11:01:33;;;;;;;2.13;0.65;;;10.90;57.50;;;;;;5854926;32;20146;-66
2021/04/03 11:05:40;;;;;;;1.75;0.55;;;11.00;60.20;;;;;;5854528;32;20143;-67
2021/04/03 11:09:46;;;;;;;2.50;0.82;;;11.10;56.90;;;;;;5854573;32;20071;-66
2021/04/03 11:13:51;;;;;;;1.75;0.65;;;11.00;57.40;;;;;;5854112;32;20739;-67
2021/04/03 11:17:55;;;;;;;1.48;0.63;;;11.10;57.20;;;;;;5855948;32;20110;-67
2021/04/03 11:21:59;;;;;;;3.20;0.65;;;11.10;57.80;;;;;;5853490;32;20397;-66
2021/04/03 11:26:03;;;;;;;1.33;0.50;;;11.10;58.40;;;;;;5855560;32;20540;-67
2021/04/03 11:30:14;;;;;;;2.83;0.68;;;11.20;59.80;;;;;;5856924;32;20329;-68
2021/04/03 11:34:28;;;;;;;2.33;0.50;;;11.00;57.00;;;;;;5856170;32;20149;-66
2021/04/03 11:38:32;;;;;;;2.85;0.70;;;10.90;56.20;;;;;;5859205;32;20188;-67
2021/04/03 11:42:37;;;;;;;3.25;0.60;;;11.00;59.80;;;;;;5856552;40;20070;-67
2021/04/03 11:46:41;;;;;;;1.95;0.70;;;11.10;58.50;;;;;;5848424;32;20176;-67
2021/04/03 11:50:46;;;;;;;2.33;0.60;;;11.20;56.40;;;;;;5860598;32;20246;-67
2021/04/03 11:54:50;;;;;;;1.23;0.47;;;11.20;57.30;;;;;;5853421;32;20168;-67
2021/04/03 11:58:57;;;;;;;3.38;0.70;;;11.40;59.00;;;;;;5857968;32;20078;-66
2021/04/03 12:03:07;;;;;;;0.85;0.43;;;11.30;56.60;;;;;;5854860;32;20117;-66
2021/04/03 12:07:10;;;;;;;2.63;0.70;;;11.30;57.20;;;;;;5860527;32;20425;-66
2021/04/03 12:11:17;;;;;;;0.90;0.35;;;11.30;56.90;;;;;;5847859;32;20572;-66
2021/04/03 12:15:20;;;;;;;2.30;0.52;;;11.30;56.70;;;;;;5856494;32;20184;-65
2021/04/03 12:19:27;;;;;;;1.52;0.47;;;11.30;55.00;;;;;;5861883;40;20067;-67
2021/04/03 12:23:31;;;;;;;1.83;0.60;;;11.40;55.20;;;;;;5849773;32;20062;-65
2021/04/03 12:27:35;;;;;;;1.45;0.50;;;11.40;56.60;;;;;;5858612;32;20071;-67
2021/04/03 12:31:42;;;;;;;2.83;0.80;;;11.50;53.80;;;;;;5862579;32;20074;-67
2021/04/03 12:35:46;;;;;;;1.80;0.60;;;11.50;54.90;;;;;;5855928;32;20071;-67
2021/04/03 12:39:47;;;;;;;3.50;0.73;;;11.50;55.60;;;;;;5857847;32;20406;-67
2021/04/03 12:43:51;;;;;;;2.28;0.70;;;11.60;54.50;;;;;;5858361;32;20079;-67
2021/04/03 12:47:55;;;;;;;1.42;0.47;;;11.40;52.90;;;;;;5857518;32;20094;-67
2021/04/03 12:52:00;;;;;;;5.15;0.50;;;11.60;55.80;;;;;;5856721;32;20101;-67
2021/04/03 12:56:05;;;;;;;4.15;0.70;;;11.40;54.90;;;;;;5858163;32;20443;-67
2021/04/03 13:00:10;;;;;;;2.85;0.60;;;11.40;54.20;;;;;;5860592;32;20097;-66
2021/04/03 13:04:19;;;;;;;5.35;0.60;;;11.30;55.40;;;;;;5860636;32;20110;-67
2021/04/03 13:08:23;;;;;;;3.00;0.88;;;11.20;52.90;;;;;;5856705;32;20094;-66
2021/04/03 13:12:29;;;;;;;1.77;0.50;;;11.10;56.70;;;;;;5859797;32;20395;-66
2021/04/03 13:16:33;;;;;;;2.63;0.70;;;11.00;53.20;;;;;;5856422;32;20378;-67
2021/04/03 13:20:39;;;;;;;2.13;0.63;;;11.00;54.00;;;;;;5859695;40;20088;-67
2021/04/03 13:24:43;;;;;;;2.67;0.73;;;11.10;54.10;;;;;;5836236;32;20086;-65
2021/04/03 13:28:48;;;;;;;3.40;0.60;;;11.20;53.10;;;;;;5854783;32;20074;-67
2021/04/03 13:32:56;;;;;;;2.13;0.68;;;11.20;52.80;;;;;;5859669;32;20081;-67
2021/04/03 13:37:01;;;;;;;3.13;0.75;;;11.10;54.20;;;;;;5851870;32;20177;-66
2021/04/03 13:41:08;;;;;;;1.88;0.50;;;11.00;53.10;;;;;;5859257;32;20074;-67
2021/04/03 13:45:12;;;;;;;1.23;0.55;;;11.00;53.90;;;;;;5857459;32;20661;-66
2021/04/03 13:49:16;;;;;;;2.88;0.77;;;11.10;52.70;;;;;;5857747;32;20267;-67
2021/04/03 13:53:20;;;;;;;2.78;0.60;;;11.00;53.20;;;;;;5857681;32;20485;-67
2021/04/03 13:57:26;;;;;;;3.08;0.70;;;11.10;53.70;;;;;;5855477;32;20079;-65
2021/04/03 14:01:30;;;;;;;2.00;0.75;;;10.80;53.70;;;;;;5858302;32;20129;-67
2021/04/03 14:05:37;;;;;;;1.85;0.60;;;11.00;53.20;;;;;;5857646;32;20098;-67
2021/04/03 14:09:41;;;;;;;4.95;0.80;;;10.90;55.80;;;;;;5854376;32;20340;-65
2021/04/03 14:13:46;;;;;;;2.58;0.82;;;11.00;53.40;;;;;;5861921;32;20405;-67
2021/04/03 14:17:52;;;;;;;3.45;0.80;;;11.00;53.60;;;;;;5858588;40;20946;-66
2021/04/03 14:21:56;;;;;;;3.45;0.90;;;11.00;53.70;;;;;;5856432;32;20086;-66
2021/04/03 14:26:05;;;;;;;3.20;0.75;;;11.00;55.20;;;;;;5847916;32;20078;-67
2021/04/03 14:30:09;;;;;;;2.05;0.68;;;11.00;54.60;;;;;;5845386;40;20405;-67
2021/04/03 14:34:14;;;;;;;3.42;0.70;;;11.00;56.80;;;;;;5855051;40;20085;-67
2021/04/03 14:38:18;;;;;;;5.78;0.93;;;10.90;54.60;;;;;;5856211;32;20071;-66
2021/04/03 14:42:24;;;;;;;4.38;0.80;;;10.90;54.10;;;;;;5852879;32;20105;-65
2021/04/03 14:46:29;;;;;;;2.40;1.13;;;10.90;56.60;;;;;;5855021;40;20394;-65
2021/04/03 14:50:32;;;;;;;2.40;0.90;;;11.00;57.90;;;;;;5854541;32;20487;-65
2021/04/03 14:54:39;;;;;;;2.97;0.70;;;11.00;54.70;;;;;;5856991;32;20072;-66
2021/04/03 14:58:46;;;;;;;1.95;0.63;;;11.00;54.90;;;;;;5855507;32;20070;-66
2021/04/03 15:02:52;;;;;;;3.20;0.70;;;10.90;54.70;;;;;;5854026;32;20105;-66
2021/04/03 15:06:59;;;;;;;2.10;0.70;;;10.80;55.70;;;;;;5860989;32;20070;-66
2021/04/03 15:11:03;;;;;;;2.15;0.95;;;10.70;55.00;;;;;;5861899;32;20062;-67
2021/04/03 15:15:10;;;;;;;1.40;0.70;;;10.60;54.60;;;;;;5852993;32;20066;-66
2021/04/03 15:19:14;;;;;;;3.08;0.63;;;10.60;54.60;;;;;;5857458;32;20077;-67
2021/04/03 15:23:18;;;;;;;1.83;0.80;;;10.60;54.60;;;;;;5855063;32;20628;-64
2021/04/03 15:27:25;;;;;;;3.97;1.02;;;10.50;54.00;;;;;;5856394;32;20082;-65
2021/04/03 15:31:29;;;;;;;5.10;1.00;;;10.50;56.90;;;;;;5853562;40;20077;-67
2021/04/03 15:35:36;;;;;;;3.75;1.38;;;10.60;56.90;;;;;;5856926;32;20658;-66
2021/04/03 15:39:42;;;;;;;4.43;1.35;;;10.50;54.50;;;;;;5850033;32;21493;-65
2021/04/03 15:43:46;;;;;;;6.18;0.90;;;10.50;54.60;;;;;;5852850;32;20121;-67
2021/04/03 15:47:50;;;;;;;2.10;0.85;;;10.50;54.90;;;;;;5855623;40;20083;-67
2021/04/03 15:51:54;;;;;;;4.53;2.05;;;10.50;56.10;;;;;;5834212;32;20058;-66
2021/04/03 15:55:58;;;;;;;3.30;1.20;;;10.50;55.30;;;;;;5846955;32;20552;-67
2021/04/03 16:00:05;;;;;;;4.93;1.20;;;10.60;55.50;;;;;;5853245;32;20169;-66
2021/04/03 16:04:09;;;;;;;18.13;10.38;;;10.60;56.90;;;;;;5851228;32;20407;-66
2021/04/03 16:08:13;;;;;;;5.63;2.80;;;10.60;55.00;;;;;;5855663;32;20067;-67
2021/04/03 16:12:20;;;;;;;6.05;1.30;;;10.60;55.20;;;;;;5853051;32;20173;-66
2021/04/03 16:16:24;;;;;;;6.22;1.50;;;10.50;54.50;;;;;;5854799;32;20124;-67
2021/04/03 16:20:29;;;;;;;5.68;1.92;;;10.50;55.10;;;;;;5855629;32;20340;-67
2021/04/03 16:24:33;;;;;;;3.20;0.88;;;10.40;55.00;;;;;;5856263;32;20216;-66
2021/04/03 16:28:40;;;;;;;2.30;1.08;;;10.40;55.40;;;;;;5853966;32;20117;-66
2021/04/03 16:32:49;;;;;;;5.85;1.85;;;10.40;55.40;;;;;;5862180;32;20094;-67
2021/04/03 16:36:53;;;;;;;3.38;1.42;;;10.30;56.20;;;;;;5857711;32;20184;-67
2021/04/03 16:40:59;;;;;;;2.22;1.05;;;10.30;55.30;;;;;;5855191;32;20112;-67
2021/04/03 16:45:05;;;;;;;2.50;1.20;;;10.20;55.80;;;;;;5853879;32;20071;-67
2021/04/03 16:49:09;;;;;;;3.85;1.30;;;10.20;55.80;;;;;;5847077;32;20062;-66
2021/04/03 16:53:13;;;;;;;4.03;1.77;;;10.20;56.60;;;;;;5856085;32;20070;-66
2021/04/03 16:57:18;;;;;;;3.80;1.10;;;10.10;55.60;;;;;;5847483;32;20125;-67
2021/04/03 17:01:27;;;;;;;6.35;1.52;;;10.10;58.30;;;;;;5852132;40;20500;-65
2021/04/03 17:05:38;;;;;;;4.53;1.98;;;10.00;57.90;;;;;;5852881;32;20424;-67
2021/04/03 17:09:42;;;;;;;6.28;2.38;;;10.00;58.40;;;;;;5854938;32;20444;-65
2021/04/03 17:13:47;;;;;;;5.28;1.77;;;10.80;59.70;;;;;;5852681;32;20066;-66
2021/04/03 17:17:51;;;;;;;6.32;1.50;;;10.00;58.40;;;;;;5851357;32;20165;-65
2021/04/03 17:21:55;;;;;;;4.72;1.80;;;10.00;58.10;;;;;;5855016;40;20073;-68
2021/04/03 17:26:05;;;;;;;5.70;1.50;;;10.00;58.30;;;;;;5852478;32;20176;-66
2021/04/03 17:30:13;;;;;;;4.30;1.83;;;10.00;59.70;;;;;;5853622;32;20145;-66
2021/04/03 17:34:17;;;;;;;6.97;2.22;;;9.90;60.10;;;;;;5856276;32;20097;-67
2021/04/03 17:38:21;;;;;;;4.70;2.40;;;9.90;60.00;;;;;;5854925;32;20556;-67
2021/04/03 17:42:25;;;;;;;6.10;1.80;;;9.80;60.60;;;;;;5854765;32;20066;-67
2021/04/03 17:46:31;;;;;;;4.07;2.10;;;9.80;60.80;;;;;;5855869;40;20402;-66
2021/04/03 17:50:35;;;;;;;10.93;5.90;;;9.90;61.30;;;;;;5854320;32;20173;-66
2021/04/03 17:54:39;;;;;;;7.95;2.53;;;9.80;61.70;;;;;;5859569;32;20177;-66
2021/04/03 17:58:44;;;;;;;10.27;2.75;;;9.80;62.90;;;;;;5856072;32;20067;-67
2021/04/03 18:02:51;;;;;;;12.35;3.33;;;9.70;64.90;;;;;;5858506;32;20149;-66
2021/04/03 18:06:55;;;;;;;12.25;3.15;;;9.60;65.80;;;;;;5857146;32;20684;-67
2021/04/03 18:10:57;;;;;;;14.60;3.00;;;9.60;66.40;;;;;;5855409;32;20062;-67
2021/04/03 18:15:05;;;;;;;13.65;4.35;;;9.50;67.70;;;;;;5849800;32;20070;-66
2021/04/03 18:19:09;;;;;;;15.52;3.03;;;9.40;67.60;;;;;;5859148;32;20062;-66
2021/04/03 18:23:19;;;;;;;14.02;3.53;;;9.30;68.00;;;;;;5855576;32;20172;-66
2021/04/03 18:27:23;;;;;;;13.55;3.35;;;9.10;68.80;;;;;;5855889;32;20110;-66
2021/04/03 18:31:28;;;;;;;14.00;2.70;;;9.60;69.30;;;;;;5852303;32;20126;-64
2021/04/03 18:35:33;;;;;;;13.63;3.17;;;9.00;69.30;;;;;;5856422;32;20077;-69
2021/04/03 18:39:37;;;;;;;16.60;4.05;;;9.00;69.60;;;;;;5840163;32;20450;-68
2021/04/03 18:43:41;;;;;;;15.77;4.15;;;8.90;69.80;;;;;;5841855;32;20078;-70
2021/04/03 18:47:45;;;;;;;19.67;4.18;;;8.80;70.10;;;;;;5855016;32;20082;-71
2021/04/03 18:51:52;;;;;;;17.75;3.97;;;8.80;70.30;;;;;;5864482;32;20160;-71
2021/04/03 18:55:58;;;;;;;18.33;3.95;;;8.70;70.50;;;;;;5857644;32;20098;-71
2021/04/03 19:00:09;;;;;;;15.48;2.78;;;8.70;70.90;;;;;;5853820;40;20365;-70
2021/04/03 19:04:14;;;;;;;16.87;4.80;;;8.60;70.90;;;;;;5852366;40;20082;-71
2021/04/03 19:08:18;;;;;;;16.38;3.83;;;8.60;70.90;;;;;;5847552;32;20148;-71
2021/04/03 19:12:22;;;;;;;15.95;3.78;;;8.50;71.90;;;;;;5844033;40;20394;-70
2021/04/03 19:16:26;;;;;;;16.33;4.28;;;8.40;71.60;;;;;;5845832;32;20106;-72
2021/04/03 19:20:34;;;;;;;15.73;3.75;;;8.30;71.60;;;;;;5840275;32;20059;-71
2021/04/03 19:24:40;;;;;;;19.38;4.68;;;8.30;72.00;;;;;;5841679;32;20097;-71
2021/04/03 19:28:50;;;;;;;15.68;4.38;;;8.20;72.00;;;;;;5840491;32;20089;-70
2021/04/03 19:32:56;;;;;;;12.50;4.05;;;8.20;72.10;;;;;;5846552;32;20322;-72
2021/04/03 19:37:01;;;;;;;18.45;6.18;;;8.10;72.30;;;;;;5848147;32;20086;-71
2021/04/03 19:41:04;;;;;;;23.00;6.88;;;7.20;71.90;;;;;;5847944;32;20187;-71
2021/04/03 19:45:09;;;;;;;17.48;5.15;;;7.90;72.30;;;;;;5842917;32;20165;-70
2021/04/03 19:49:17;;;;;;;23.95;6.13;;;7.90;72.60;;;;;;5843014;32;20430;-70
2021/04/03 19:53:21;;;;;;;12.32;3.80;;;7.80;72.30;;;;;;5855859;32;20066;-70
2021/04/03 19:57:27;;;;;;;14.23;4.10;;;7.80;72.60;;;;;;5851839;32;20076;-70
2021/04/03 20:01:31;;;;;;;13.73;3.83;;;7.70;72.50;;;;;;5837712;33;20093;-70
2021/04/03 20:05:38;;;;;;;19.88;5.90;;;7.70;72.50;;;;;;5846828;32;20070;-70
2021/04/03 20:09:42;;;;;;;14.80;4.35;;;7.70;72.60;;;;;;5851737;32;20086;-71
2021/04/03 20:13:46;;;;;;;13.45;4.75;;;7.60;72.70;;;;;;5838467;32;20185;-72
2021/04/03 20:17:50;;;;;;;34.85;12.88;;;7.50;72.70;;;;;;5857787;40;20132;-71
2021/04/03 20:21:54;;;;;;;12.07;5.72;;;7.50;73.00;;;;;;5860080;32;20063;-72
2021/04/03 20:25:59;;;;;;;15.13;4.28;;;7.40;73.00;;;;;;5859700;32;20066;-71
2021/04/03 20:30:04;;;;;;;18.15;3.80;;;7.30;73.00;;;;;;5861886;32;20422;-72
2021/04/03 20:34:08;;;;;;;15.18;3.20;;;7.20;73.20;;;;;;5857605;32;20077;-70
2021/04/03 20:38:18;;;;;;;12.52;3.90;;;7.10;73.30;;;;;;5857586;32;20494;-70
2021/04/03 20:42:23;;;;;;;15.70;3.63;;;7.00;74.10;;;;;;5855884;32;20086;-70
2021/04/03 20:46:29;;;;;;;12.77;3.20;;;6.90;73.80;;;;;;5851728;32;20097;-70
2021/04/03 20:50:34;;;;;;;12.15;4.00;;;6.90;73.70;;;;;;5843051;32;20071;-70
2021/04/03 20:54:38;;;;;;;13.07;4.50;;;6.80;73.80;;;;;;5847820;32;20173;-71
2021/04/03 20:58:44;;;;;;;15.30;4.00;;;6.70;74.00;;;;;;5850679;32;20110;-70
2021/04/03 21:02:51;;;;;;;22.13;4.20;;;6.60;74.10;;;;;;5848115;32;20071;-70
2021/04/03 21:06:55;;;;;;;15.50;3.78;;;6.50;74.30;;;;;;5856932;32;20405;-70
2021/04/03 21:10:59;;;;;;;20.45;4.82;;;6.40;74.30;;;;;;5857409;32;20180;-71
2021/04/03 21:15:06;;;;;;;18.65;6.80;;;6.30;74.40;;;;;;5858825;32;20073;-71
2021/04/03 21:19:10;;;;;;;18.85;6.40;;;6.30;74.60;;;;;;5858941;32;20102;-71
2021/04/03 21:23:18;;;;;;;16.63;5.80;;;6.20;74.40;;;;;;5856932;32;20441;-71
2021/04/03 21:27:23;;;;;;;16.30;5.47;;;6.10;74.90;;;;;;5856454;32;20196;-70
2021/04/03 21:31:28;;;;;;;20.38;5.15;;;6.00;74.70;;;;;;5850609;32;20316;-71